Accueil
METAR-TAF:

METAR-TAF

Aéroports :

Aéroport international de Kosrae

Kosrae, Micronésie

latitude: 05-21N, longitude: 162-57E, altitude: 3 m

Observation

Le bulletin a été fait il y a 8 heures et 44 minutes, à 22:50 UTC
Vent 10 kt de sud
Température 31°C
Humidité 66%
Pression 1011 hPa
Visibilité: 16.1 km
Nuages épars à une hauteur de 2000 ft, Cumulus congestus.
Nuages fragmentés à une hauteur de 13000 ft
Nuages fragmentés à une hauteur de 30000 ft

METAR: PTSA 212250Z 18010KT 10SM SCT020TCU BKN130 BKN300 31/24 A2985 RMK TCU NE-E AND S

Heure: 18:34 (07:34 UTC)

Prévision

Le bulletin a été fait il y a 8 heures et 13 minutes, à 23:21 UTC
Prévision valable du 22 à 00 UTC au 22 à 24 UTC
Vent 10 kt de sud
Visibilité: 10 km
Nuages épars à une hauteur de 2000 ft
Nuages fragmentés à une hauteur de 13000 ft
Nuages fragmentés à une hauteur de 30000 ft

TAF: PTSA 212321Z 2200/2224 18010KT P6SM SCT020 BKN130 BKN300

Observations et prévisions météorologiques de plus de 4000 aéroports (messages METAR et TAF).

Les stations disponibles sont représentées par des disques jaunes et rouges sur la carte.

Passer la souris dessus pour voir le nom de la station.

Cliquer dessus pour voir les observations et prévisions météorologiques.

Pour changer de carte: cliquez sur les boutons verts avec une croix noire pour zoomer, sur le bouton vert avec un tiret pour effectuer un zoom arrière, ou sur les flèches vertes pour les cartes adjacentes.


METAR-TAF: